createdAt,value
2018-10-18T00:00:18.767Z,28.15
2018-10-18T00:01:23.165Z,28.45
2018-10-18T00:02:26.589Z,28.45
2018-10-18T00:03:30.090Z,27.30
2018-10-18T00:04:33.428Z,28.05
2018-10-18T00:05:37.873Z,28.35
2018-10-18T00:06:41.324Z,28.98
2018-10-18T00:07:44.750Z,29.57
2018-10-18T00:08:48.145Z,28.70
2018-10-18T00:09:51.545Z,28.00
2018-10-18T00:10:56.081Z,28.30
2018-10-18T00:11:59.533Z,27.35
2018-10-18T00:13:02.911Z,27.93
2018-10-18T00:14:06.482Z,27.32
2018-10-18T00:15:11.099Z,28.95
2018-10-18T00:16:15.690Z,26.85
2018-10-18T00:17:24.514Z,28.65
2018-10-18T00:18:27.910Z,26.85
2018-10-18T00:19:31.305Z,28.47
2018-10-18T00:20:35.705Z,26.68
2018-10-18T00:21:39.182Z,28.60
2018-10-18T00:22:43.263Z,28.60
2018-10-18T00:23:46.672Z,29.30
2018-10-18T00:24:50.367Z,28.17
2018-10-18T00:25:54.805Z,30.57
2018-10-18T00:26:58.245Z,29.23
2018-10-18T00:28:01.630Z,27.95
2018-10-18T00:29:05.188Z,27.42
2018-10-18T00:30:11.834Z,27.58
2018-10-18T00:31:16.402Z,29.02
2018-10-18T00:32:19.901Z,27.70
2018-10-18T00:33:23.336Z,27.82
2018-10-18T00:34:26.740Z,28.38
2018-10-18T00:35:31.262Z,29.55
2018-10-18T00:36:35.301Z,27.77
2018-10-18T00:37:39.689Z,27.30
2018-10-18T00:38:43.124Z,28.92
2018-10-18T00:39:46.524Z,26.93
2018-10-18T00:40:51.001Z,28.30
2018-10-18T00:41:54.474Z,28.90
2018-10-18T00:42:57.868Z,27.62
2018-10-18T00:44:01.360Z,27.27
2018-10-18T00:45:06.728Z,27.90
2018-10-18T00:46:11.154Z,28.75
2018-10-18T00:47:14.611Z,25.50
2018-10-18T00:48:18.104Z,27.67
2018-10-18T00:49:21.456Z,26.10
2018-10-18T00:50:25.954Z,25.97
2018-10-18T00:51:30.445Z,27.30
2018-10-18T00:52:33.912Z,28.05
2018-10-18T00:53:37.336Z,27.32
2018-10-18T00:54:40.740Z,27.58
2018-10-18T00:55:45.075Z,28.45
2018-10-18T00:56:50.508Z,26.45
2018-10-18T00:57:53.960Z,27.25
2018-10-18T00:58:57.349Z,26.05
2018-10-18T01:00:01.023Z,27.75
2018-10-18T01:01:05.946Z,26.73
2018-10-18T01:02:10.556Z,26.00
2018-10-18T01:03:14.033Z,25.92
2018-10-18T01:04:17.445Z,26.93
2018-10-18T01:05:21.860Z,27.58
2018-10-18T01:06:26.273Z,26.48
2018-10-18T01:07:29.709Z,26.70
2018-10-18T01:08:33.147Z,25.92
2018-10-18T01:09:36.531Z,24.55
2018-10-18T01:10:41.057Z,26.12
2018-10-18T01:11:44.486Z,25.35
2018-10-18T01:12:47.932Z,26.48
2018-10-18T01:13:51.304Z,25.97
2018-10-18T01:14:54.706Z,23.73
2018-10-18T01:15:59.220Z,26.07
2018-10-18T01:17:03.829Z,26.42
2018-10-18T01:18:07.585Z,25.15
2018-10-18T01:19:11.985Z,25.68
2018-10-18T01:20:16.862Z,27.48
2018-10-18T01:21:22.448Z,25.55
2018-10-18T01:22:25.882Z,26.68
2018-10-18T01:23:29.277Z,26.23
2018-10-18T01:24:32.732Z,24.87
2018-10-18T01:25:37.108Z,27.10
2018-10-18T01:26:40.528Z,25.05
2018-10-18T01:27:43.983Z,21.80
2018-10-18T01:28:47.403Z,26.68
2018-10-18T01:29:50.897Z,26.07
2018-10-18T01:30:55.339Z,25.08
2018-10-18T01:31:59.366Z,26.75
2018-10-18T01:33:02.766Z,26.62
2018-10-18T01:34:06.188Z,24.92
2018-10-18T01:35:10.648Z,24.12
2018-10-18T01:36:15.686Z,24.43
2018-10-18T01:37:19.100Z,24.60
2018-10-18T01:38:22.556Z,24.63
2018-10-18T01:39:25.986Z,24.37
2018-10-18T01:40:30.223Z,23.85
2018-10-18T01:41:33.660Z,26.20
2018-10-18T01:42:37.089Z,27.05
2018-10-18T01:43:40.550Z,25.60
2018-10-18T01:44:43.964Z,26.68
2018-10-18T01:45:48.574Z,26.48
2018-10-18T01:46:52.431Z,25.30
2018-10-18T01:47:55.844Z,25.97
2018-10-18T01:48:59.232Z,26.52
2018-10-18T01:50:02.766Z,24.60
2018-10-18T01:51:07.718Z,24.95
2018-10-18T01:52:11.124Z,25.32
2018-10-18T01:53:14.541Z,25.05
2018-10-18T01:54:17.997Z,23.85
2018-10-18T01:55:22.366Z,24.02
2018-10-18T01:56:27.073Z,24.07
2018-10-18T01:57:30.513Z,26.77
2018-10-18T01:58:33.884Z,25.50
2018-10-18T01:59:37.305Z,24.85
2018-10-18T02:00:42.838Z,25.97
2018-10-18T02:01:46.292Z,26.70
2018-10-18T02:02:49.693Z,25.50
2018-10-18T02:03:53.107Z,26.90
2018-10-18T02:04:56.524Z,24.60
2018-10-18T02:06:01.182Z,25.88
2018-10-18T02:07:04.632Z,26.75
2018-10-18T02:08:08.079Z,27.02
2018-10-18T02:09:12.552Z,26.73
2018-10-18T02:10:16.907Z,28.60
2018-10-18T02:11:21.576Z,26.85
2018-10-18T02:12:25.032Z,28.17
2018-10-18T02:13:28.502Z,27.73
2018-10-18T02:14:31.868Z,27.50
2018-10-18T02:15:36.329Z,28.42
2018-10-18T02:16:39.769Z,28.85
2018-10-18T02:17:43.189Z,27.45
2018-10-18T02:18:46.599Z,28.00
2018-10-18T02:19:49.989Z,28.77
2018-10-18T02:20:54.342Z,28.42
2018-10-18T02:21:57.781Z,28.15
2018-10-18T02:23:01.211Z,29.32
2018-10-18T02:24:04.899Z,27.80
2018-10-18T02:25:09.366Z,28.38
2018-10-18T02:26:14.144Z,29.95
2018-10-18T02:27:17.580Z,28.92
2018-10-18T02:28:21.041Z,27.17
2018-10-18T02:29:24.456Z,27.60
2018-10-18T02:30:28.771Z,32.10
2018-10-18T02:31:32.191Z,32.20
2018-10-18T02:32:35.860Z,32.45
2018-10-18T02:33:39.275Z,33.20
2018-10-18T02:34:42.684Z,34.65
2018-10-18T02:35:47.333Z,30.27
2018-10-18T02:36:50.797Z,34.53
2018-10-18T02:37:54.197Z,37.20
2018-10-18T02:39:07.045Z,35.98
2018-10-18T02:40:11.472Z,34.48
2018-10-18T02:41:15.923Z,35.60
2018-10-18T02:42:19.403Z,34.08
2018-10-18T02:43:22.782Z,37.75
2018-10-18T02:44:26.304Z,36.65
2018-10-18T02:45:31.674Z,37.78
2018-10-18T02:46:35.189Z,26.70
2018-10-18T02:47:38.601Z,33.15
2018-10-18T02:48:41.993Z,39.38
2018-10-18T02:49:45.508Z,39.45
2018-10-18T02:50:49.987Z,40.28
2018-10-18T02:51:53.436Z,39.40
2018-10-18T02:52:56.840Z,39.90
2018-10-18T02:54:00.252Z,37.33
2018-10-18T02:55:04.538Z,39.50
2018-10-18T02:56:09.243Z,39.27
2018-10-18T02:57:12.695Z,39.35
2018-10-18T02:58:16.136Z,35.03
2018-10-18T02:59:19.555Z,38.58
2018-10-18T03:00:24.139Z,41.00
2018-10-18T03:01:28.564Z,39.88
2018-10-18T03:02:32.371Z,42.13
2018-10-18T03:03:35.829Z,42.83
2018-10-18T03:04:39.336Z,42.00
2018-10-18T03:05:43.821Z,39.03
2018-10-18T03:06:47.246Z,40.05
2018-10-18T03:07:50.637Z,42.83
2018-10-18T03:08:54.300Z,35.38
2018-10-18T03:09:58.341Z,41.18
2018-10-18T03:11:02.714Z,44.00
2018-10-18T03:12:06.632Z,40.90
2018-10-18T03:13:09.962Z,40.03
2018-10-18T03:14:13.368Z,38.60
2018-10-18T03:15:17.868Z,40.40
2018-10-18T03:16:22.238Z,42.45
2018-10-18T03:17:25.679Z,40.75
2018-10-18T03:18:29.080Z,38.98
2018-10-18T03:19:32.462Z,39.27
2018-10-18T03:20:36.991Z,41.20
2018-10-18T03:21:40.450Z,38.75
2018-10-18T03:22:43.888Z,40.25
2018-10-18T03:23:47.270Z,40.30
2018-10-18T03:24:50.649Z,39.33
2018-10-18T03:25:55.559Z,40.00
2018-10-18T03:26:58.988Z,37.98
2018-10-18T03:28:02.515Z,37.08
2018-10-18T03:29:05.911Z,37.40
2018-10-18T03:30:10.571Z,36.93
2018-10-18T03:31:15.304Z,36.75
2018-10-18T03:32:18.845Z,36.25
2018-10-18T03:33:22.232Z,35.35
2018-10-18T03:34:25.665Z,35.65
2018-10-18T03:35:30.666Z,36.20
2018-10-18T03:36:34.139Z,35.65
2018-10-18T03:37:37.724Z,35.17
2018-10-18T03:38:41.123Z,36.25
2018-10-18T03:39:44.526Z,36.13
2018-10-18T03:40:49.106Z,35.05
2018-10-18T03:41:52.546Z,34.15
2018-10-18T03:42:55.969Z,37.28
2018-10-18T03:43:59.369Z,35.40
2018-10-18T03:45:02.909Z,36.33
2018-10-18T03:46:07.402Z,35.78
2018-10-18T03:47:10.838Z,35.73
2018-10-18T03:48:14.334Z,35.88
2018-10-18T03:49:17.712Z,35.60
2018-10-18T03:50:22.501Z,35.05
2018-10-18T03:51:27.891Z,36.20
2018-10-18T03:52:31.332Z,34.20
2018-10-18T03:53:34.742Z,36.45
2018-10-18T03:54:38.155Z,34.67
2018-10-18T03:55:42.646Z,38.20
2018-10-18T03:56:46.219Z,36.13
2018-10-18T03:57:49.621Z,35.05
2018-10-18T03:58:53.025Z,36.85
2018-10-18T03:59:56.504Z,35.40
2018-10-18T04:01:00.925Z,35.85
2018-10-18T04:02:04.456Z,35.00
2018-10-18T04:03:07.839Z,35.70
2018-10-18T04:04:11.286Z,34.55
2018-10-18T04:05:16.625Z,34.05
2018-10-18T04:06:21.184Z,34.85
2018-10-18T04:07:24.514Z,34.55
2018-10-18T04:08:27.950Z,36.08
2018-10-18T04:09:31.343Z,35.80
2018-10-18T04:10:35.900Z,34.63
2018-10-18T04:11:40.385Z,35.98
2018-10-18T04:12:43.777Z,34.98
2018-10-18T04:13:47.189Z,34.30
2018-10-18T04:14:50.633Z,34.58
2018-10-18T04:15:55.060Z,34.65
2018-10-18T04:16:58.509Z,35.17
2018-10-18T04:18:02.007Z,34.20
2018-10-18T04:19:05.839Z,35.75
2018-10-18T04:20:10.226Z,34.45
2018-10-18T04:21:15.434Z,33.63
2018-10-18T04:22:18.887Z,34.38
2018-10-18T04:23:36.881Z,34.03
2018-10-18T04:24:40.261Z,33.53
2018-10-18T04:25:45.646Z,35.50
2018-10-18T04:26:49.071Z,35.90
2018-10-18T04:27:52.478Z,36.08
2018-10-18T04:28:55.896Z,35.92
2018-10-18T04:29:59.332Z,36.45
2018-10-18T04:31:04.408Z,33.95
2018-10-18T04:32:08.399Z,33.92
2018-10-18T04:33:11.856Z,35.33
2018-10-18T04:34:15.299Z,33.42
2018-10-18T04:35:19.784Z,33.08
2018-10-18T04:36:24.145Z,33.40
2018-10-18T04:37:27.597Z,35.28
2018-10-18T04:38:30.987Z,34.25
2018-10-18T04:39:34.371Z,33.23
2018-10-18T04:40:38.968Z,35.98
2018-10-18T04:41:42.652Z,33.23
2018-10-18T04:42:46.061Z,34.38
2018-10-18T04:43:49.472Z,34.73
2018-10-18T04:44:52.919Z,33.53
2018-10-18T04:45:57.273Z,34.33
2018-10-18T04:47:00.776Z,33.38
2018-10-18T04:48:04.360Z,34.48
2018-10-18T04:49:07.691Z,33.20
2018-10-18T04:50:12.193Z,33.02
2018-10-18T04:51:16.631Z,33.63
2018-10-18T04:52:20.049Z,31.65
2018-10-18T04:53:23.429Z,33.18
2018-10-18T04:54:26.832Z,31.12
2018-10-18T04:55:31.232Z,32.55
2018-10-18T04:56:34.723Z,31.50
2018-10-18T04:57:38.149Z,33.00
2018-10-18T04:58:41.552Z,31.57
2018-10-18T04:59:44.943Z,32.00
2018-10-18T05:00:50.025Z,31.12
2018-10-18T05:01:53.508Z,31.97
2018-10-18T05:02:56.992Z,31.90
2018-10-18T05:04:00.440Z,30.12
2018-10-18T05:05:15.726Z,29.35
2018-10-18T05:06:20.506Z,29.70
2018-10-18T05:07:23.969Z,30.15
2018-10-18T05:08:27.982Z,30.32
2018-10-18T05:09:31.416Z,29.70
2018-10-18T05:10:35.849Z,30.65
2018-10-18T05:11:39.289Z,29.90
2018-10-18T05:12:42.680Z,31.33
2018-10-18T05:13:46.146Z,29.63
2018-10-18T05:14:49.585Z,31.23
2018-10-18T05:15:53.936Z,31.15
2018-10-18T05:16:57.373Z,29.85
2018-10-18T05:18:00.747Z,28.38
2018-10-18T05:19:04.242Z,29.05
2018-10-18T05:20:08.876Z,28.02
2018-10-18T05:21:14.137Z,28.92
2018-10-18T05:22:17.557Z,28.70
2018-10-18T05:23:20.921Z,28.95
2018-10-18T05:24:24.342Z,30.55
2018-10-18T05:25:28.810Z,27.80
2018-10-18T05:26:32.240Z,27.70
2018-10-18T05:27:35.666Z,27.62
2018-10-18T05:28:39.129Z,28.25
2018-10-18T05:29:42.564Z,28.85
2018-10-18T05:30:47.738Z,28.62
2018-10-18T05:31:51.232Z,27.35
2018-10-18T05:32:54.567Z,27.67
2018-10-18T05:33:57.951Z,27.50
2018-10-18T05:35:01.371Z,27.13
2018-10-18T05:36:05.867Z,27.98
2018-10-18T05:37:09.312Z,28.02
2018-10-18T05:38:12.649Z,28.15
2018-10-18T05:39:16.099Z,27.48
2018-10-18T05:40:21.615Z,28.20
2018-10-18T05:41:25.965Z,27.45
2018-10-18T05:42:29.429Z,28.83
2018-10-18T05:43:32.825Z,27.80
2018-10-18T05:44:36.264Z,27.67
2018-10-18T05:45:40.646Z,27.75
2018-10-18T05:46:44.142Z,27.95
2018-10-18T05:47:47.496Z,27.93
2018-10-18T05:48:50.888Z,27.60
2018-10-18T05:49:54.324Z,26.60
2018-10-18T05:50:58.806Z,27.58
2018-10-18T05:52:02.236Z,27.00
2018-10-18T05:53:05.947Z,28.52
2018-10-18T05:54:09.284Z,26.93
2018-10-18T05:55:13.912Z,27.85
2018-10-18T05:56:18.381Z,26.97
2018-10-18T05:57:21.929Z,27.82
2018-10-18T05:58:25.377Z,27.82
2018-10-18T05:59:29.348Z,27.67
2018-10-18T06:00:33.922Z,26.60
2018-10-18T06:01:37.347Z,26.93
2018-10-18T06:02:41.044Z,26.68
2018-10-18T06:03:44.447Z,28.00
2018-10-18T06:04:47.980Z,26.55
2018-10-18T06:05:52.381Z,27.05
2018-10-18T06:06:55.870Z,27.60
2018-10-18T06:07:59.346Z,26.35
2018-10-18T06:09:02.842Z,26.82
2018-10-18T06:10:17.120Z,26.55
2018-10-18T06:11:27.571Z,26.80
2018-10-18T06:12:31.013Z,27.77
2018-10-18T06:13:34.441Z,27.90
2018-10-18T06:14:37.852Z,26.80
2018-10-18T06:15:42.404Z,26.37
2018-10-18T06:16:45.888Z,26.85
2018-10-18T06:17:49.279Z,26.82
2018-10-18T06:18:52.842Z,26.70
2018-10-18T06:19:56.656Z,26.62
2018-10-18T06:21:01.422Z,26.45
2018-10-18T06:22:05.302Z,25.52
2018-10-18T06:23:08.781Z,26.93
2018-10-18T06:24:12.232Z,27.77
2018-10-18T06:25:16.732Z,27.35
2018-10-18T06:26:22.571Z,26.23
2018-10-18T06:27:26.277Z,26.90
2018-10-18T06:28:29.999Z,29.25
2018-10-18T06:29:33.424Z,28.75
2018-10-18T06:30:37.947Z,28.02
2018-10-18T06:31:41.592Z,28.42
2018-10-18T06:32:44.980Z,29.12
2018-10-18T06:33:48.929Z,29.10
2018-10-18T06:34:52.378Z,30.15
2018-10-18T06:35:56.975Z,28.02
2018-10-18T06:37:00.466Z,29.15
2018-10-18T06:38:03.824Z,27.65
2018-10-18T06:39:08.863Z,27.10
2018-10-18T06:40:14.614Z,26.02
2018-10-18T06:41:19.190Z,25.90
2018-10-18T06:42:22.585Z,28.00
2018-10-18T06:43:26.003Z,27.42
2018-10-18T06:44:29.449Z,27.17
2018-10-18T06:45:33.951Z,27.82
2018-10-18T06:46:37.437Z,26.95
2018-10-18T06:47:41.584Z,26.87
2018-10-18T06:48:44.846Z,28.17
2018-10-18T06:49:48.268Z,28.98
2018-10-18T06:50:53.545Z,28.98
2018-10-18T06:51:57.019Z,27.65
2018-10-18T06:53:00.399Z,29.60
2018-10-18T06:54:03.831Z,29.32
2018-10-18T06:55:08.447Z,29.02
2018-10-18T06:56:13.457Z,28.23
2018-10-18T06:57:16.942Z,28.00
2018-10-18T06:58:20.369Z,29.72
2018-10-18T06:59:23.810Z,28.10
2018-10-18T07:00:28.247Z,27.95
2018-10-18T07:01:32.349Z,29.52
2018-10-18T07:02:35.764Z,27.93
2018-10-18T07:03:39.268Z,28.98
2018-10-18T07:04:42.679Z,28.35
2018-10-18T07:05:49.591Z,30.00
2018-10-18T07:06:53.044Z,28.95
2018-10-18T07:07:56.465Z,25.70
2018-10-18T07:08:59.991Z,27.35
2018-10-18T07:10:03.859Z,29.72
2018-10-18T07:11:08.533Z,30.15
2018-10-18T07:12:11.930Z,28.95
2018-10-18T07:13:15.327Z,28.52
2018-10-18T07:14:18.745Z,29.15
2018-10-18T07:15:23.110Z,30.23
2018-10-18T07:16:27.462Z,28.12
2018-10-18T07:17:30.956Z,30.00
2018-10-18T07:18:34.368Z,28.05
2018-10-18T07:19:37.805Z,30.75
2018-10-18T07:20:42.394Z,28.47
2018-10-18T07:21:45.878Z,29.48
2018-10-18T07:22:49.281Z,28.60
2018-10-18T07:23:52.715Z,28.27
2018-10-18T07:24:56.136Z,28.52
2018-10-18T07:26:00.679Z,24.55
2018-10-18T07:27:04.168Z,27.48
2018-10-18T07:28:07.576Z,27.48
2018-10-18T07:29:10.993Z,29.12
2018-10-18T07:30:15.894Z,28.85
2018-10-18T07:31:20.322Z,28.80
2018-10-18T07:32:24.021Z,27.65
2018-10-18T07:33:27.453Z,27.90
2018-10-18T07:34:30.912Z,27.30
2018-10-18T07:35:35.549Z,26.30
2018-10-18T07:36:38.964Z,26.95
2018-10-18T07:37:42.361Z,28.73
2018-10-18T07:38:45.769Z,27.32
2018-10-18T07:39:49.237Z,25.80
2018-10-18T07:40:53.576Z,22.40
2018-10-18T07:41:57.089Z,26.57
2018-10-18T07:43:00.497Z,25.97
2018-10-18T07:44:03.949Z,26.45
2018-10-18T07:45:09.869Z,25.62
2018-10-18T07:46:14.479Z,27.80
2018-10-18T07:47:17.949Z,25.60
2018-10-18T07:48:21.338Z,24.98
2018-10-18T07:49:24.820Z,23.80
2018-10-18T07:50:29.329Z,26.37
2018-10-18T07:51:32.794Z,25.15
2018-10-18T07:52:36.519Z,26.35
2018-10-18T07:53:40.091Z,26.12
2018-10-18T07:54:43.458Z,27.73
2018-10-18T07:55:47.944Z,26.80
2018-10-18T07:56:51.476Z,24.12
2018-10-18T07:57:54.884Z,24.72
2018-10-18T07:58:58.301Z,24.50
2018-10-18T08:00:01.990Z,26.35
2018-10-18T08:01:06.231Z,24.87
2018-10-18T08:02:09.691Z,27.05
2018-10-18T08:03:13.109Z,25.12
2018-10-18T08:04:16.538Z,24.98
2018-10-18T08:05:21.273Z,26.42
2018-10-18T08:06:25.753Z,25.62
2018-10-18T08:07:29.206Z,25.00
2018-10-18T08:08:32.623Z,25.55
2018-10-18T08:09:36.084Z,26.12
2018-10-18T08:10:40.455Z,25.40
2018-10-18T08:11:44.008Z,24.80
2018-10-18T08:12:47.452Z,24.60
2018-10-18T08:13:50.877Z,25.25
2018-10-18T08:14:54.352Z,24.00
2018-10-18T08:15:58.728Z,23.20
2018-10-18T08:17:02.226Z,25.43
2018-10-18T08:18:05.903Z,24.85
2018-10-18T08:19:09.473Z,24.92
2018-10-18T08:20:14.629Z,25.27
2018-10-18T08:21:19.231Z,24.65
2018-10-18T08:22:22.728Z,24.95
2018-10-18T08:23:26.166Z,23.05
2018-10-18T08:24:29.594Z,22.45
2018-10-18T08:25:33.923Z,23.80
2018-10-18T08:26:37.452Z,24.20
2018-10-18T08:27:40.916Z,24.30
2018-10-18T08:28:44.404Z,22.60
2018-10-18T08:29:47.816Z,22.93
2018-10-18T08:30:54.607Z,23.10
2018-10-18T08:31:58.075Z,20.72
2018-10-18T08:33:01.536Z,23.73
2018-10-18T08:34:05.121Z,24.15
2018-10-18T08:35:10.411Z,21.80
2018-10-18T08:36:14.936Z,24.20
2018-10-18T08:37:18.371Z,22.75
2018-10-18T08:38:22.713Z,23.90
2018-10-18T08:39:26.136Z,22.50
2018-10-18T08:40:30.752Z,23.12
2018-10-18T08:41:34.208Z,24.02
2018-10-18T08:42:37.620Z,23.42
2018-10-18T08:43:41.040Z,21.73
2018-10-18T08:44:44.510Z,23.47
2018-10-18T08:45:49.084Z,23.57
2018-10-18T08:46:52.525Z,22.98
2018-10-18T08:47:55.928Z,22.82
2018-10-18T08:48:59.356Z,21.75
2018-10-18T08:50:02.903Z,24.18
2018-10-18T08:51:07.258Z,23.02
2018-10-18T08:52:10.698Z,24.80
2018-10-18T08:53:14.133Z,24.80
2018-10-18T08:54:17.541Z,25.17
2018-10-18T08:55:22.093Z,24.32
2018-10-18T08:56:26.980Z,26.25
2018-10-18T08:57:30.502Z,24.18
2018-10-18T08:58:33.925Z,24.45
2018-10-18T08:59:37.373Z,24.77
2018-10-18T09:00:42.362Z,23.18
2018-10-18T09:01:45.800Z,24.87
2018-10-18T09:02:49.212Z,24.37
2018-10-18T09:03:52.626Z,20.45
2018-10-18T09:04:56.032Z,22.13
2018-10-18T09:06:00.372Z,23.75
2018-10-18T09:07:03.878Z,22.65
2018-10-18T09:08:07.248Z,23.20
2018-10-18T09:09:10.815Z,21.12
2018-10-18T09:10:15.194Z,22.95
2018-10-18T09:11:19.632Z,16.20
2018-10-18T09:12:23.065Z,24.95
2018-10-18T09:13:26.500Z,19.12
2018-10-18T09:14:29.916Z,23.90
2018-10-18T09:15:34.237Z,13.20
2018-10-18T09:16:37.704Z,26.45
2018-10-18T09:17:41.233Z,23.20
2018-10-18T09:18:44.696Z,23.95
2018-10-18T09:19:48.110Z,22.45
2018-10-18T09:20:53.608Z,21.57
2018-10-18T09:21:57.669Z,19.82
2018-10-18T09:23:01.737Z,24.43
2018-10-18T09:24:05.508Z,23.38
2018-10-18T09:25:10.986Z,21.40
2018-10-18T09:26:15.562Z,22.90
2018-10-18T09:27:18.981Z,23.40
2018-10-18T09:28:22.455Z,18.17
2018-10-18T09:29:25.906Z,22.87
2018-10-18T09:30:30.906Z,21.57
2018-10-18T09:31:34.169Z,21.70
2018-10-18T09:32:37.580Z,23.60
2018-10-18T09:33:41.021Z,23.22
2018-10-18T09:34:44.471Z,19.48
2018-10-18T09:35:49.051Z,21.85
2018-10-18T09:36:52.503Z,21.37
2018-10-18T09:37:55.967Z,19.27
2018-10-18T09:38:59.459Z,22.13
2018-10-18T09:40:02.999Z,22.35
2018-10-18T09:41:08.398Z,21.87
2018-10-18T09:42:11.875Z,22.27
2018-10-18T09:43:15.448Z,21.02
2018-10-18T09:44:18.992Z,20.90
2018-10-18T09:45:23.412Z,15.55
2018-10-18T09:46:27.895Z,21.23
2018-10-18T09:47:31.420Z,19.55
2018-10-18T09:48:35.048Z,22.20
2018-10-18T09:49:39.401Z,21.73
2018-10-18T09:50:44.546Z,22.82
2018-10-18T09:51:48.017Z,16.02
2018-10-18T09:52:51.498Z,16.87
2018-10-18T09:53:54.847Z,22.27
2018-10-18T09:54:59.126Z,21.48
2018-10-18T09:56:03.563Z,21.77
2018-10-18T09:57:06.945Z,21.05
2018-10-18T09:58:10.560Z,14.35
2018-10-18T09:59:14.104Z,23.70
2018-10-18T10:00:23.691Z,22.67
2018-10-18T10:01:33.187Z,21.75
2018-10-18T10:02:41.336Z,22.22
2018-10-18T10:03:44.825Z,22.45
2018-10-18T10:04:48.313Z,22.93
2018-10-18T10:05:52.666Z,22.00
2018-10-18T10:06:56.141Z,22.42
2018-10-18T10:07:59.500Z,23.18
2018-10-18T10:09:03.433Z,21.97
2018-10-18T10:10:08.376Z,21.33
2018-10-18T10:11:12.881Z,21.05
2018-10-18T10:12:16.337Z,21.93
2018-10-18T10:13:19.870Z,20.48
2018-10-18T10:14:23.220Z,22.93
2018-10-18T10:15:27.752Z,20.08
2018-10-18T10:16:31.297Z,19.77
2018-10-18T10:17:34.752Z,20.48
2018-10-18T10:18:38.226Z,22.00
2018-10-18T10:19:41.678Z,21.80
2018-10-18T10:20:46.281Z,21.75
2018-10-18T10:21:49.760Z,19.30
2018-10-18T10:22:53.166Z,21.20
2018-10-18T10:23:56.584Z,20.30
2018-10-18T10:25:00.071Z,21.52
2018-10-18T10:26:05.094Z,17.57
2018-10-18T10:27:08.667Z,22.05
2018-10-18T10:28:12.104Z,20.85
2018-10-18T10:29:15.535Z,22.58
2018-10-18T10:30:20.780Z,21.75
2018-10-18T10:31:25.408Z,19.60
2018-10-18T10:32:28.869Z,21.20
2018-10-18T10:33:32.408Z,20.72
2018-10-18T10:34:35.797Z,20.72
2018-10-18T10:35:40.618Z,22.85
2018-10-18T10:36:44.104Z,19.12
2018-10-18T10:37:47.510Z,21.45
2018-10-18T10:38:51.263Z,20.90
2018-10-18T10:39:54.724Z,22.65
2018-10-18T10:40:59.183Z,21.70
2018-10-18T10:42:02.659Z,21.37
2018-10-18T10:43:06.241Z,22.65
2018-10-18T10:44:10.368Z,20.90
2018-10-18T10:45:14.864Z,20.12
2018-10-18T10:46:19.572Z,21.48
2018-10-18T10:47:23.046Z,20.95
2018-10-18T10:48:26.484Z,21.35
2018-10-18T10:49:30.023Z,21.57
2018-10-18T10:50:34.860Z,21.12
2018-10-18T10:51:38.537Z,21.10
2018-10-18T10:52:41.980Z,19.30
2018-10-18T10:53:45.404Z,21.62
2018-10-18T10:54:48.936Z,19.90
2018-10-18T10:55:53.534Z,17.70
2018-10-18T10:56:57.239Z,19.57
2018-10-18T10:58:00.711Z,20.00
2018-10-18T10:59:12.542Z,19.20
2018-10-18T11:00:26.480Z,19.65
2018-10-18T11:01:30.279Z,18.98
2018-10-18T11:02:33.683Z,20.75
2018-10-18T11:03:37.813Z,19.30
2018-10-18T11:04:41.254Z,21.20
2018-10-18T11:05:45.720Z,19.92
2018-10-18T11:06:49.197Z,20.27
2018-10-18T11:07:52.695Z,21.73
2018-10-18T11:08:56.158Z,21.40
2018-10-18T11:09:59.591Z,21.52
2018-10-18T11:11:04.085Z,21.15
2018-10-18T11:12:07.627Z,22.07
2018-10-18T11:13:10.996Z,18.82
2018-10-18T11:14:14.469Z,19.73
2018-10-18T11:15:19.069Z,19.87
2018-10-18T11:16:24.296Z,20.32
2018-10-18T11:17:27.712Z,19.37
2018-10-18T11:18:32.213Z,18.92
2018-10-18T11:19:35.704Z,19.00
2018-10-18T11:20:40.367Z,19.90
2018-10-18T11:21:43.929Z,17.87
2018-10-18T11:22:47.285Z,18.20
2018-10-18T11:23:50.683Z,17.92
2018-10-18T11:24:54.148Z,18.37
2018-10-18T11:25:59.073Z,19.62
2018-10-18T11:27:02.596Z,17.70
2018-10-18T11:28:06.228Z,19.57
2018-10-18T11:29:09.658Z,19.37
2018-10-18T11:30:14.306Z,20.77
2018-10-18T11:31:19.332Z,19.05
2018-10-18T11:32:22.757Z,20.43
2018-10-18T11:33:26.135Z,19.45
2018-10-18T11:34:29.690Z,19.57
2018-10-18T11:35:35.904Z,19.37
2018-10-18T11:36:39.313Z,16.75
2018-10-18T11:37:42.704Z,10.70
2018-10-18T11:38:46.117Z,18.67
2018-10-18T11:39:49.579Z,12.23
2018-10-18T11:40:54.103Z,20.08
2018-10-18T11:41:57.648Z,18.98
2018-10-18T11:43:01.161Z,20.75
2018-10-18T11:44:04.761Z,19.55
2018-10-18T11:45:09.250Z,14.10
2018-10-18T11:46:13.820Z,17.25
2018-10-18T11:47:17.307Z,18.57
2018-10-18T11:48:20.748Z,16.00
2018-10-18T11:49:24.163Z,13.03
2018-10-18T11:50:28.960Z,19.00
2018-10-18T11:51:32.454Z,17.05
2018-10-18T11:52:35.836Z,16.27
2018-10-18T11:53:39.283Z,18.35
2018-10-18T11:54:42.712Z,18.30
2018-10-18T11:55:47.360Z,18.50
2018-10-18T11:56:50.808Z,13.58
2018-10-18T11:57:54.240Z,15.10
2018-10-18T11:58:57.729Z,17.77
2018-10-18T12:00:01.176Z,16.25
2018-10-18T12:01:05.865Z,17.90
2018-10-18T12:02:09.395Z,16.93
2018-10-18T12:03:12.751Z,16.12
2018-10-18T12:04:16.154Z,17.62
2018-10-18T12:05:20.639Z,15.08
2018-10-18T12:06:26.082Z,15.75
2018-10-18T12:07:29.487Z,15.43
2018-10-18T12:08:32.873Z,15.03
2018-10-18T12:09:36.345Z,17.07
2018-10-18T12:10:40.882Z,16.27
2018-10-18T12:11:44.333Z,14.33
2018-10-18T12:12:47.766Z,15.08
2018-10-18T12:13:51.176Z,12.93
2018-10-18T12:14:54.694Z,13.08
2018-10-18T12:15:59.595Z,14.50
2018-10-18T12:17:03.200Z,14.75
2018-10-18T12:18:06.556Z,13.13
2018-10-18T12:19:10.070Z,13.72
2018-10-18T12:20:16.002Z,12.63
2018-10-18T12:21:21.093Z,11.75
2018-10-18T12:22:24.525Z,12.25
2018-10-18T12:23:27.989Z,11.15
2018-10-18T12:24:31.424Z,10.85
2018-10-18T12:25:35.824Z,11.88
2018-10-18T12:26:39.257Z,12.88
2018-10-18T12:27:43.157Z,12.30
2018-10-18T12:28:46.623Z,11.68
2018-10-18T12:29:50.044Z,9.55
2018-10-18T12:30:54.237Z,12.20
2018-10-18T12:31:57.672Z,10.45
2018-10-18T12:33:01.071Z,11.03
2018-10-18T12:34:04.665Z,11.55
2018-10-18T12:35:09.022Z,11.28
2018-10-18T12:36:13.627Z,11.90
2018-10-18T12:37:17.133Z,11.20
2018-10-18T12:38:20.559Z,10.72
2018-10-18T12:39:24.016Z,11.90
2018-10-18T12:40:28.574Z,11.83
2018-10-18T12:41:32.170Z,12.03
2018-10-18T12:42:36.336Z,10.43
2018-10-18T12:43:39.782Z,11.05
2018-10-18T12:44:43.228Z,11.15
2018-10-18T12:45:47.640Z,11.40
2018-10-18T12:46:51.062Z,12.53
2018-10-18T12:47:54.573Z,11.65
2018-10-18T12:48:57.923Z,12.15
2018-10-18T12:50:01.399Z,11.30
2018-10-18T12:51:05.747Z,9.85
2018-10-18T12:52:11.097Z,11.63
2018-10-18T12:53:14.549Z,11.30
2018-10-18T12:54:18.012Z,11.20
2018-10-18T12:55:23.001Z,10.80
2018-10-18T12:56:27.442Z,10.88
2018-10-18T12:57:30.887Z,10.68
2018-10-18T12:58:34.367Z,11.93
2018-10-18T12:59:37.824Z,13.00
2018-10-18T13:00:42.669Z,11.95
2018-10-18T13:01:46.134Z,12.60
2018-10-18T13:02:49.555Z,11.33
2018-10-18T13:03:52.977Z,11.48
2018-10-18T13:04:56.441Z,10.98
2018-10-18T13:06:01.305Z,10.38
2018-10-18T13:07:05.085Z,9.65
2018-10-18T13:08:08.515Z,10.43
2018-10-18T13:09:11.904Z,9.35
2018-10-18T13:10:17.474Z,9.95
2018-10-18T13:11:22.598Z,8.88
2018-10-18T13:12:26.133Z,9.98
2018-10-18T13:13:29.424Z,9.23
2018-10-18T13:14:32.822Z,7.55
2018-10-18T13:15:37.192Z,7.75
2018-10-18T13:16:40.692Z,8.43
2018-10-18T13:17:44.147Z,7.95
2018-10-18T13:18:47.622Z,6.90
2018-10-18T13:19:51.020Z,5.58
2018-10-18T13:20:55.306Z,5.00
2018-10-18T13:21:58.759Z,6.95
2018-10-18T13:23:02.159Z,6.53
2018-10-18T13:24:05.905Z,6.62
2018-10-18T13:25:11.536Z,6.67
2018-10-18T13:26:15.978Z,7.25
2018-10-18T13:27:19.444Z,6.22
2018-10-18T13:28:22.840Z,6.15
2018-10-18T13:29:26.269Z,6.50
2018-10-18T13:30:30.929Z,5.85
2018-10-18T13:31:34.401Z,5.87
2018-10-18T13:32:37.838Z,4.28
2018-10-18T13:33:41.240Z,5.75
2018-10-18T13:34:44.697Z,5.53
2018-10-18T13:35:49.148Z,5.20
2018-10-18T13:36:52.596Z,5.05
2018-10-18T13:37:56.023Z,5.42
2018-10-18T13:38:59.507Z,5.08
2018-10-18T13:40:03.829Z,4.25
2018-10-18T13:41:08.338Z,5.17
2018-10-18T13:42:11.804Z,5.00
2018-10-18T13:43:15.208Z,4.37
2018-10-18T13:44:18.728Z,4.50